createdAt,value
2022-10-22T00:01:06.542Z,11.02
2022-10-22T00:03:33.814Z,10.23
2022-10-22T00:06:00.587Z,11.07
2022-10-22T00:08:27.437Z,10.75
2022-10-22T00:10:54.215Z,11.20
2022-10-22T00:13:21.413Z,10.60
2022-10-22T00:15:48.260Z,10.15
2022-10-22T00:18:15.161Z,10.85
2022-10-22T00:20:41.984Z,9.77
2022-10-22T00:23:08.813Z,10.95
2022-10-22T00:25:36.298Z,10.10
2022-10-22T00:28:03.855Z,11.10
2022-10-22T00:30:30.786Z,11.52
2022-10-22T00:32:57.539Z,11.00
2022-10-22T00:35:24.381Z,10.32
2022-10-22T00:37:51.219Z,11.32
2022-10-22T00:40:18.067Z,11.45
2022-10-22T00:42:44.800Z,10.82
2022-10-22T00:45:11.546Z,10.93
2022-10-22T00:48:04.851Z,11.15
2022-10-22T00:50:41.320Z,10.98
2022-10-22T00:53:15.532Z,11.25
2022-10-22T00:55:44.370Z,11.32
2022-10-22T00:58:12.839Z,12.20
2022-10-22T01:00:39.874Z,11.30
2022-10-22T01:03:07.091Z,10.98
2022-10-22T01:05:51.465Z,10.57
2022-10-22T01:08:39.267Z,10.48
2022-10-22T01:11:34.894Z,10.90
2022-10-22T01:14:25.218Z,10.40
2022-10-22T01:17:10.570Z,11.27
2022-10-22T01:19:46.589Z,10.13
2022-10-22T01:24:58.187Z,10.27
2022-10-22T01:27:52.066Z,10.52
2022-10-22T01:30:19.680Z,10.95
2022-10-22T01:32:57.373Z,11.68
2022-10-22T01:35:29.452Z,11.80
2022-10-22T01:37:59.838Z,11.32
2022-10-22T01:40:28.406Z,12.25
2022-10-22T01:42:56.693Z,12.27
2022-10-22T01:45:23.488Z,11.98
2022-10-22T01:47:59.148Z,12.18
2022-10-22T01:51:03.257Z,12.93
2022-10-22T01:53:50.967Z,13.13
2022-10-22T01:56:24.263Z,13.13
2022-10-22T01:59:08.230Z,11.73
2022-10-22T02:01:52.572Z,12.60
2022-10-22T02:04:26.407Z,12.32
2022-10-22T02:06:58.421Z,12.73
2022-10-22T02:09:28.061Z,12.32
2022-10-22T02:11:56.632Z,12.00
2022-10-22T02:14:25.589Z,11.60
2022-10-22T02:16:52.663Z,10.98
2022-10-22T02:19:27.375Z,11.82
2022-10-22T02:21:54.657Z,11.73
2022-10-22T02:24:22.587Z,12.07
2022-10-22T02:27:06.569Z,11.38
2022-10-22T02:30:02.416Z,11.52
2022-10-22T02:32:36.817Z,11.38
2022-10-22T02:35:04.503Z,11.88
2022-10-22T02:37:32.292Z,12.13
2022-10-22T02:39:59.093Z,12.23
2022-10-22T02:42:26.560Z,12.38
2022-10-22T02:44:53.437Z,11.75
2022-10-22T02:47:20.282Z,12.38
2022-10-22T02:49:47.194Z,11.48
2022-10-22T02:52:14.048Z,11.88
2022-10-22T02:54:40.824Z,11.50
2022-10-22T02:57:07.861Z,11.32
2022-10-22T02:59:34.635Z,11.50
2022-10-22T03:02:01.445Z,12.18
2022-10-22T03:04:28.300Z,12.13
2022-10-22T03:06:55.154Z,11.77
2022-10-22T03:09:24.132Z,12.18
2022-10-22T03:11:52.033Z,11.85
2022-10-22T03:14:19.039Z,12.40
2022-10-22T03:16:45.849Z,12.48
2022-10-22T03:19:12.578Z,12.10
2022-10-22T03:21:48.016Z,12.40
2022-10-22T03:24:22.278Z,11.68
2022-10-22T03:26:51.947Z,12.25
2022-10-22T03:29:21.016Z,11.65
2022-10-22T03:31:47.983Z,13.13
2022-10-22T03:34:15.053Z,12.43
2022-10-22T03:36:42.005Z,12.23
2022-10-22T03:39:11.984Z,12.57
2022-10-22T03:41:38.892Z,12.07
2022-10-22T03:44:06.168Z,11.45
2022-10-22T03:46:33.035Z,10.93
2022-10-22T03:48:59.860Z,11.18
2022-10-22T03:51:28.171Z,11.85
2022-10-22T03:53:55.518Z,11.00
2022-10-22T03:56:22.766Z,11.95
2022-10-22T03:58:49.657Z,11.02
2022-10-22T04:01:16.550Z,12.13
2022-10-22T04:03:43.374Z,12.18
2022-10-22T04:06:13.003Z,11.82
2022-10-22T04:08:41.140Z,11.45
2022-10-22T04:11:08.350Z,11.80
2022-10-22T04:13:35.296Z,10.82
2022-10-22T04:16:24.035Z,12.05
2022-10-22T04:18:53.126Z,11.43
2022-10-22T04:21:19.987Z,11.18
2022-10-22T04:23:52.445Z,11.68
2022-10-22T04:26:20.222Z,10.43
2022-10-22T04:28:48.555Z,10.35
2022-10-22T04:31:17.960Z,11.30
2022-10-22T04:33:44.984Z,10.63
2022-10-22T04:36:18.019Z,10.77
2022-10-22T04:38:47.105Z,9.95
2022-10-22T04:41:16.711Z,10.75
2022-10-22T04:43:44.194Z,10.75
2022-10-22T04:46:12.331Z,10.80
2022-10-22T04:48:41.005Z,11.05
2022-10-22T04:51:09.178Z,10.10
2022-10-22T04:53:36.303Z,11.20
2022-10-22T04:56:12.955Z,11.15
2022-10-22T04:58:40.016Z,11.27
2022-10-22T05:01:12.864Z,10.77
2022-10-22T05:03:39.889Z,10.90
2022-10-22T05:06:07.560Z,10.38
2022-10-22T05:08:34.774Z,10.80
2022-10-22T05:11:01.809Z,9.90
2022-10-22T05:13:28.570Z,9.68
2022-10-22T05:15:55.329Z,10.38
2022-10-22T05:18:22.726Z,10.85
2022-10-22T05:20:49.496Z,10.85
2022-10-22T05:23:16.258Z,10.25
2022-10-22T05:25:43.011Z,10.25
2022-10-22T05:28:09.801Z,10.45
2022-10-22T05:30:36.557Z,10.73
2022-10-22T05:33:03.341Z,10.27
2022-10-22T05:35:30.125Z,10.40
2022-10-22T05:40:30.998Z,9.57
2022-10-22T05:42:58.930Z,9.88
2022-10-22T05:45:25.725Z,10.63
2022-10-22T05:47:52.526Z,10.13
2022-10-22T05:50:19.266Z,10.25
2022-10-22T05:52:46.006Z,9.88
2022-10-22T05:55:12.786Z,10.20
2022-10-22T05:57:40.775Z,9.43
2022-10-22T06:00:10.564Z,8.43
2022-10-22T06:02:39.954Z,9.57
2022-10-22T06:05:07.206Z,8.75
2022-10-22T06:07:34.485Z,9.57
2022-10-22T06:10:02.068Z,9.25
2022-10-22T06:12:28.884Z,9.73
2022-10-22T06:14:55.715Z,10.05
2022-10-22T06:17:22.521Z,8.48
2022-10-22T06:19:49.614Z,9.25
2022-10-22T06:22:16.365Z,10.00
2022-10-22T06:24:45.108Z,8.98
2022-10-22T06:27:12.091Z,8.98
2022-10-22T06:29:38.845Z,9.90
2022-10-22T06:32:05.814Z,9.48
2022-10-22T06:34:32.692Z,9.00
2022-10-22T06:36:59.495Z,8.48
2022-10-22T06:39:26.275Z,9.65
2022-10-22T06:41:53.031Z,9.00
2022-10-22T06:44:20.476Z,9.82
2022-10-22T06:46:52.176Z,10.00
2022-10-22T06:49:20.196Z,9.40
2022-10-22T06:51:50.385Z,8.63
2022-10-22T06:54:17.160Z,9.35
2022-10-22T06:56:43.967Z,9.20
2022-10-22T06:59:10.922Z,8.68
2022-10-22T07:01:38.851Z,9.00
2022-10-22T07:04:06.910Z,8.30
2022-10-22T07:06:33.704Z,8.75
2022-10-22T07:09:00.758Z,7.40
2022-10-22T07:11:58.530Z,9.20
2022-10-22T07:14:25.347Z,8.98
2022-10-22T07:16:52.075Z,8.80
2022-10-22T07:19:18.882Z,9.23
2022-10-22T07:21:45.705Z,8.38
2022-10-22T07:24:12.504Z,9.40
2022-10-22T07:26:39.289Z,10.18
2022-10-22T07:29:06.738Z,8.13
2022-10-22T07:31:33.592Z,8.43
2022-10-22T07:34:00.350Z,9.07
2022-10-22T07:36:27.309Z,7.28
2022-10-22T07:38:57.165Z,8.43
2022-10-22T07:41:24.132Z,8.13
2022-10-22T07:43:51.050Z,8.38
2022-10-22T07:46:18.028Z,8.63
2022-10-22T07:48:44.807Z,8.63
2022-10-22T07:51:11.801Z,8.45
2022-10-22T07:53:38.664Z,8.45
2022-10-22T07:56:06.058Z,7.88
2022-10-22T07:58:33.053Z,8.07
2022-10-22T08:01:01.292Z,8.00
2022-10-22T08:03:29.038Z,8.05
2022-10-22T08:05:56.135Z,7.95
2022-10-22T08:08:25.843Z,7.55
2022-10-22T08:10:58.722Z,8.48
2022-10-22T08:13:26.373Z,6.72
2022-10-22T08:15:56.555Z,7.20
2022-10-22T08:18:24.901Z,7.57
2022-10-22T08:20:53.405Z,7.60
2022-10-22T08:23:24.492Z,7.55
2022-10-22T08:25:55.552Z,7.30
2022-10-22T08:28:22.504Z,7.28
2022-10-22T08:30:49.522Z,7.40
2022-10-22T08:33:16.322Z,7.57
2022-10-22T08:35:48.520Z,7.30
2022-10-22T08:38:15.299Z,8.60
2022-10-22T08:40:44.038Z,7.82
2022-10-22T08:43:16.630Z,7.85
2022-10-22T08:46:07.509Z,7.72
2022-10-22T08:48:48.352Z,8.45
2022-10-22T08:51:21.486Z,7.00
2022-10-22T08:53:59.944Z,7.90
2022-10-22T08:56:27.327Z,7.32
2022-10-22T08:58:59.409Z,7.13
2022-10-22T09:01:36.818Z,7.13
2022-10-22T09:04:12.435Z,7.25
2022-10-22T09:06:41.570Z,7.85
2022-10-22T09:09:35.084Z,7.93
2022-10-22T09:12:04.121Z,7.70
2022-10-22T09:14:31.039Z,7.75
2022-10-22T09:17:21.900Z,7.00
2022-10-22T09:20:11.958Z,7.10
2022-10-22T09:23:21.863Z,7.63
2022-10-22T09:25:51.240Z,7.95
2022-10-22T09:28:18.709Z,8.52
2022-10-22T09:30:46.132Z,7.43
2022-10-22T09:33:22.631Z,8.18
2022-10-22T09:35:54.423Z,7.82
2022-10-22T09:38:28.448Z,8.75
2022-10-22T09:40:57.524Z,7.97
2022-10-22T09:43:24.641Z,8.02
2022-10-22T09:46:00.120Z,8.52
2022-10-22T09:48:32.243Z,8.25
2022-10-22T09:51:23.014Z,7.80
2022-10-22T09:53:58.622Z,8.30
2022-10-22T09:56:27.675Z,8.77
2022-10-22T09:58:57.133Z,9.07
2022-10-22T10:01:34.722Z,8.05
2022-10-22T10:04:09.843Z,8.70
2022-10-22T10:06:40.264Z,9.43
2022-10-22T10:09:18.626Z,9.27
2022-10-22T10:12:29.983Z,11.20
2022-10-22T10:14:59.640Z,10.43
2022-10-22T10:17:45.008Z,10.07
2022-10-22T10:20:49.869Z,9.13
2022-10-22T10:23:55.685Z,9.23
2022-10-22T10:27:01.478Z,9.48
2022-10-22T10:29:34.873Z,9.52
2022-10-22T10:32:32.116Z,8.63
2022-10-22T10:35:21.748Z,10.23
2022-10-22T10:37:51.301Z,10.35
2022-10-22T10:40:57.581Z,10.65
2022-10-22T10:43:51.298Z,9.93
2022-10-22T10:46:50.364Z,10.13
2022-10-22T10:49:29.972Z,10.73
2022-10-22T10:52:18.868Z,9.68
2022-10-22T10:55:17.455Z,9.65
2022-10-22T10:58:12.773Z,10.82
2022-10-22T11:00:56.725Z,8.93
2022-10-22T11:03:58.235Z,9.93
2022-10-22T11:06:26.392Z,10.13
2022-10-22T11:09:05.452Z,10.95
2022-10-22T11:11:41.669Z,12.52
2022-10-22T11:14:18.509Z,12.13
2022-10-22T11:16:57.738Z,11.55
2022-10-22T11:19:50.235Z,10.95
2022-10-22T11:22:42.166Z,10.07
2022-10-22T11:25:32.021Z,9.68
2022-10-22T11:28:11.244Z,9.30
2022-10-22T11:30:40.616Z,9.15
2022-10-22T11:33:19.444Z,9.52
2022-10-22T11:35:47.177Z,10.45
2022-10-22T11:38:22.323Z,10.18
2022-10-22T11:41:02.369Z,9.40
2022-10-22T11:43:33.520Z,9.82
2022-10-22T11:46:23.307Z,11.77
2022-10-22T11:49:13.343Z,11.73
2022-10-22T11:51:42.372Z,11.60
2022-10-22T11:54:44.266Z,10.43
2022-10-22T11:57:17.066Z,10.48
2022-10-22T12:00:11.211Z,9.65
2022-10-22T12:02:41.438Z,8.63
2022-10-22T12:05:39.064Z,8.73
2022-10-22T12:08:26.477Z,8.35
2022-10-22T12:11:06.657Z,8.38
2022-10-22T12:14:10.039Z,8.15
2022-10-22T12:16:55.744Z,7.68
2022-10-22T12:19:23.593Z,7.43
2022-10-22T12:22:11.999Z,8.07
2022-10-22T12:24:41.859Z,7.13
2022-10-22T12:27:23.583Z,7.72
2022-10-22T12:29:55.787Z,8.55
2022-10-22T12:32:22.882Z,8.15
2022-10-22T12:34:51.790Z,7.63
2022-10-22T12:37:19.709Z,8.57
2022-10-22T12:39:47.141Z,9.10
2022-10-22T12:42:18.078Z,8.32
2022-10-22T12:44:45.361Z,8.52
2022-10-22T12:47:18.909Z,9.30
2022-10-22T12:49:50.337Z,8.88
2022-10-22T12:52:22.786Z,9.63
2022-10-22T12:54:54.941Z,9.38
2022-10-22T12:57:22.364Z,9.23
2022-10-22T12:59:51.874Z,9.98
2022-10-22T13:02:27.859Z,10.18
2022-10-22T13:07:43.021Z,9.05
2022-10-22T13:10:20.081Z,9.15
2022-10-22T13:12:51.415Z,8.20
2022-10-22T13:15:39.744Z,9.02
2022-10-22T13:18:19.914Z,8.05
2022-10-22T13:21:01.871Z,8.95
2022-10-22T13:23:31.455Z,9.18
2022-10-22T13:26:15.426Z,7.93
2022-10-22T13:28:43.802Z,8.43
2022-10-22T13:31:20.281Z,8.77
2022-10-22T13:33:56.333Z,10.00
2022-10-22T13:36:23.770Z,8.70
2022-10-22T13:38:50.872Z,9.90
2022-10-22T13:41:24.768Z,8.75
2022-10-22T13:43:52.486Z,8.82
2022-10-22T13:46:20.223Z,9.38
2022-10-22T13:48:48.457Z,9.13
2022-10-22T13:51:21.423Z,8.80
2022-10-22T13:53:50.293Z,9.60
2022-10-22T13:56:19.663Z,9.18
2022-10-22T13:58:47.727Z,10.07
2022-10-22T14:01:25.069Z,13.00
2022-10-22T14:03:54.399Z,10.27
2022-10-22T14:06:22.904Z,9.73
2022-10-22T14:08:55.121Z,8.95
2022-10-22T14:11:21.920Z,8.95
2022-10-22T14:13:48.709Z,9.77
2022-10-22T14:16:23.014Z,12.02
2022-10-22T14:18:50.649Z,10.82
2022-10-22T14:21:18.566Z,10.07
2022-10-22T14:23:47.307Z,10.63
2022-10-22T14:26:23.224Z,9.65
2022-10-22T14:31:42.135Z,10.70
2022-10-22T14:34:14.516Z,10.75
2022-10-22T14:36:43.758Z,11.20
2022-10-22T14:39:10.923Z,10.50
2022-10-22T14:41:37.883Z,11.80
2022-10-22T14:44:04.778Z,9.93
2022-10-22T14:46:31.629Z,10.77
2022-10-22T14:48:58.558Z,10.02
2022-10-22T14:51:25.350Z,9.80
2022-10-22T14:53:52.155Z,9.90
2022-10-22T14:56:23.084Z,11.20
2022-10-22T14:58:50.934Z,10.15
2022-10-22T15:01:17.997Z,11.13
2022-10-22T15:03:45.012Z,11.18
2022-10-22T15:06:11.874Z,11.02
2022-10-22T15:08:39.474Z,11.30
2022-10-22T15:11:12.435Z,11.55
2022-10-22T15:13:41.326Z,11.18
2022-10-22T15:16:10.581Z,12.02
2022-10-22T15:18:38.053Z,11.60
2022-10-22T15:21:20.947Z,10.98
2022-10-22T15:23:48.078Z,12.60
2022-10-22T15:26:15.306Z,11.63
2022-10-22T15:28:42.552Z,11.57
2022-10-22T15:31:14.227Z,11.35
2022-10-22T15:33:42.513Z,11.45
2022-10-22T15:36:16.076Z,11.45
2022-10-22T15:38:42.863Z,10.32
2022-10-22T15:41:12.561Z,11.07
2022-10-22T15:43:39.517Z,10.93
2022-10-22T15:46:18.629Z,11.82
2022-10-22T15:48:46.428Z,12.05
2022-10-22T15:51:19.384Z,12.70
2022-10-22T15:53:58.696Z,12.63
2022-10-22T15:56:27.947Z,12.63
2022-10-22T15:58:57.841Z,13.18
2022-10-22T16:01:26.534Z,13.48
2022-10-22T16:04:00.233Z,13.38
2022-10-22T16:06:34.417Z,14.13
2022-10-22T16:09:04.812Z,14.52
2022-10-22T16:11:32.484Z,14.82
2022-10-22T16:14:00.539Z,16.08
2022-10-22T16:16:30.413Z,14.48
2022-10-22T16:18:57.272Z,14.75
2022-10-22T16:21:24.870Z,13.57
2022-10-22T16:23:52.212Z,12.88
2022-10-22T16:26:19.642Z,14.10
2022-10-22T16:28:48.312Z,13.07
2022-10-22T16:31:17.849Z,12.25
2022-10-22T16:33:49.198Z,12.68
2022-10-22T16:36:19.936Z,12.77
2022-10-22T16:38:48.198Z,13.52
2022-10-22T16:41:19.422Z,12.65
2022-10-22T16:43:51.167Z,12.05
2022-10-22T16:46:19.602Z,12.50
2022-10-22T16:48:51.696Z,12.05
2022-10-22T16:51:24.174Z,10.95
2022-10-22T16:53:55.068Z,13.18
2022-10-22T16:56:22.298Z,11.75
2022-10-22T16:58:51.269Z,13.13
2022-10-22T17:01:20.426Z,11.75
2022-10-22T17:03:47.382Z,12.45
2022-10-22T17:06:14.938Z,12.27
2022-10-22T17:08:42.455Z,13.05
2022-10-22T17:11:11.720Z,12.20
2022-10-22T17:13:40.664Z,13.18
2022-10-22T17:16:09.549Z,13.60
2022-10-22T17:18:38.852Z,13.65
2022-10-22T17:21:07.008Z,15.23
2022-10-22T17:23:33.956Z,13.18
2022-10-22T17:26:09.815Z,14.52
2022-10-22T17:28:36.868Z,15.27
2022-10-22T17:31:04.981Z,13.82
2022-10-22T17:33:31.958Z,14.00
2022-10-22T17:35:58.835Z,14.85
2022-10-22T17:38:25.755Z,14.45
2022-10-22T17:40:52.642Z,15.60
2022-10-22T17:43:19.476Z,16.67
2022-10-22T17:45:46.280Z,15.32
2022-10-22T17:48:13.165Z,16.77
2022-10-22T17:50:46.961Z,16.90
2022-10-22T17:53:16.513Z,18.45
2022-10-22T17:55:43.341Z,18.50
2022-10-22T17:58:10.081Z,34.33
2022-10-22T18:00:37.196Z,27.65
2022-10-22T18:03:04.037Z,22.35
2022-10-22T18:05:30.878Z,22.58
2022-10-22T18:07:57.670Z,20.88
2022-10-22T18:10:24.958Z,18.23
2022-10-22T18:12:51.743Z,17.23
2022-10-22T18:15:18.595Z,17.25
2022-10-22T18:17:47.148Z,16.40
2022-10-22T18:20:14.176Z,18.40
2022-10-22T18:22:42.294Z,17.75
2022-10-22T18:25:09.858Z,17.80
2022-10-22T18:27:37.243Z,17.90
2022-10-22T18:30:04.568Z,18.40
2022-10-22T18:32:33.641Z,18.30
2022-10-22T18:35:00.549Z,18.23
2022-10-22T18:37:27.511Z,19.25
2022-10-22T18:39:54.362Z,18.80
2022-10-22T18:42:21.135Z,20.15
2022-10-22T18:44:49.278Z,19.33
2022-10-22T18:47:16.123Z,19.50
2022-10-22T18:49:42.877Z,19.25
2022-10-22T18:52:09.769Z,19.75
2022-10-22T18:54:36.673Z,18.52
2022-10-22T18:57:03.883Z,20.85
2022-10-22T18:59:31.091Z,19.95
2022-10-22T19:02:02.058Z,18.92
2022-10-22T19:04:36.668Z,19.05
2022-10-22T19:07:05.481Z,18.92
2022-10-22T19:09:32.656Z,19.05
2022-10-22T19:12:00.164Z,19.40
2022-10-22T19:14:27.377Z,19.70
2022-10-22T19:16:54.374Z,19.70
2022-10-22T19:19:22.404Z,20.20
2022-10-22T19:21:50.105Z,21.50
2022-10-22T19:24:18.930Z,20.20
2022-10-22T19:26:47.387Z,19.98
2022-10-22T19:29:16.694Z,21.05
2022-10-22T19:31:44.318Z,20.40
2022-10-22T19:34:11.352Z,21.40
2022-10-22T19:36:38.408Z,19.92
2022-10-22T19:39:06.293Z,20.38
2022-10-22T19:41:33.506Z,20.73
2022-10-22T19:44:01.164Z,20.75
2022-10-22T19:46:30.153Z,20.48
2022-10-22T19:48:57.404Z,21.52
2022-10-22T19:51:26.711Z,20.35
2022-10-22T19:54:08.996Z,21.30
2022-10-22T19:56:37.756Z,20.80
2022-10-22T19:59:05.957Z,22.55
2022-10-22T20:01:32.965Z,22.42
2022-10-22T20:04:01.571Z,23.73
2022-10-22T20:06:28.800Z,21.77
2022-10-22T20:08:56.351Z,22.20
2022-10-22T20:11:30.168Z,22.88
2022-10-22T20:13:58.003Z,21.20
2022-10-22T20:16:28.697Z,21.98
2022-10-22T20:19:00.071Z,21.20
2022-10-22T20:21:27.560Z,21.27
2022-10-22T20:23:56.409Z,21.10
2022-10-22T20:26:24.540Z,21.60
2022-10-22T20:28:52.113Z,22.90
2022-10-22T20:31:20.558Z,22.40
2022-10-22T20:33:50.413Z,22.02
2022-10-22T20:36:20.639Z,20.75
2022-10-22T20:38:50.687Z,21.83
2022-10-22T20:41:23.264Z,20.67
2022-10-22T20:43:51.966Z,20.92
2022-10-22T20:46:23.216Z,20.63
2022-10-22T20:48:58.410Z,19.92
2022-10-22T20:51:25.427Z,19.92
2022-10-22T20:53:52.284Z,19.33
2022-10-22T20:56:19.587Z,18.83
2022-10-22T20:58:50.533Z,18.23
2022-10-22T21:01:24.212Z,21.00
2022-10-22T21:03:52.551Z,17.85
2022-10-22T21:06:23.373Z,20.13
2022-10-22T21:08:51.595Z,18.50
2022-10-22T21:11:18.828Z,18.20
2022-10-22T21:13:45.714Z,18.58
2022-10-22T21:16:14.742Z,18.80
2022-10-22T21:18:41.520Z,19.45
2022-10-22T21:21:09.323Z,19.70
2022-10-22T21:23:36.680Z,20.83
2022-10-22T21:26:04.231Z,19.83
2022-10-22T21:28:35.105Z,19.83
2022-10-22T21:31:04.363Z,19.25
2022-10-22T21:33:31.212Z,19.55
2022-10-22T21:35:58.309Z,19.42
2022-10-22T21:38:25.956Z,20.90
2022-10-22T21:40:53.221Z,19.65
2022-10-22T21:43:20.363Z,19.98
2022-10-22T21:45:47.369Z,18.75
2022-10-22T21:48:15.142Z,19.85
2022-10-22T21:50:43.759Z,18.85
2022-10-22T21:53:12.117Z,18.02
2022-10-22T21:55:42.368Z,18.80
2022-10-22T21:58:09.290Z,18.42
2022-10-22T22:00:36.386Z,18.33
2022-10-22T22:03:03.972Z,19.83
2022-10-22T22:05:30.817Z,19.00
2022-10-22T22:07:57.678Z,18.85
2022-10-22T22:10:26.569Z,19.30
2022-10-22T22:12:53.392Z,20.67
2022-10-22T22:15:20.820Z,18.85
2022-10-22T22:17:47.626Z,20.05
2022-10-22T22:20:14.477Z,21.65
2022-10-22T22:22:41.450Z,20.58
2022-10-22T22:25:08.832Z,21.60
2022-10-22T22:27:35.782Z,20.83
2022-10-22T22:30:03.037Z,21.63
2022-10-22T22:32:29.799Z,23.02
2022-10-22T22:34:56.524Z,21.83
2022-10-22T22:37:23.356Z,22.55
2022-10-22T22:39:50.123Z,20.85
2022-10-22T22:42:16.869Z,21.25
2022-10-22T22:44:43.756Z,21.17
2022-10-22T22:47:10.871Z,20.48
2022-10-22T22:49:37.606Z,21.10
2022-10-22T22:52:04.934Z,20.25
2022-10-22T22:54:31.772Z,21.38
2022-10-22T22:56:58.537Z,18.88
2022-10-22T22:59:25.332Z,19.75
2022-10-22T23:01:52.121Z,20.27
2022-10-22T23:04:23.720Z,20.02
2022-10-22T23:06:51.258Z,19.85
2022-10-22T23:11:47.948Z,18.90
2022-10-22T23:14:16.170Z,19.33
2022-10-22T23:16:49.195Z,19.52
2022-10-22T23:19:18.703Z,19.45
2022-10-22T23:21:47.860Z,19.27
2022-10-22T23:24:17.621Z,18.75
2022-10-22T23:26:47.678Z,18.88
2022-10-22T23:29:20.308Z,18.80
2022-10-22T23:31:48.226Z,18.40
2022-10-22T23:36:50.290Z,21.05
2022-10-22T23:39:20.501Z,20.02
2022-10-22T23:41:47.322Z,20.55
2022-10-22T23:44:14.744Z,19.95
2022-10-22T23:46:41.768Z,21.52
2022-10-22T23:49:09.655Z,20.40
2022-10-22T23:51:37.377Z,21.08
2022-10-22T23:54:10.755Z,20.85
2022-10-22T23:56:37.659Z,20.25
2022-10-22T23:59:05.272Z,22.13
